Historyczne dane pomiarowe

Dodano dane terminowe – wersja testowa.

Dane z okresu 1951-2019

Wersja bazy: 1.34 [2019-03-16, lista zmian], aktualizacja planowana na 2019-04-15

Dane meteo z obszaru Polski uzyskane na podstawie danych udostępnionych przez Instytut Meteorologii i Gospodarki Wodnej – Państwowy Instytut Badawczy.

 

Wybierz Datę:    

       

TemperaturaWilgotnośćWiatrCiśnienieOpadyŚniegCzas trwania zjawisk
 Stacja t tx tn tng RH VA  wxwx mslp ppp RRR   cm mm wxwxwxwxwxwxwx
1983-08-14 13.8 19.3 7.0 3.3 74.5- 2.0 1.7---- 0.0------------
1983-08-13 14.4 17.8 11.5 9.9 83.3- 3.7 2.0---- 1.0------------
1983-08-12 18.4 22.8 13.5 9.7 73.0- 5.3 2.7---- 4.1------------
1983-08-11 20.4 27.2 14.0 9.6 77.0- 3.7 2.0---- 0.0------------
1983-08-10 20.1 26.9 14.5 11.9 78.3- 0.0 2.3---- 0.0------------
1983-08-09 19.7 25.5 15.3 12.9 80.8- 2.7 3.0---- 0.0------------
1983-08-08 18.6 24.0 15.7 14.2 89.3- 4.7 3.3---- 0.0------------
1983-08-07 18.4 22.5 15.0 12.7 89.0- 6.7 4.0---- 0.0------------
1983-08-06 15.9 21.7 10.0 6.9 82.5- 3.7 1.0---- 0.0------------
1983-08-05 14.4 17.5 12.3 11.7 87.5- 6.0 1.3---- 0.0------------
1983-08-04 15.9 17.5 14.8 14.4 94.8- 8.0 1.3---- 2.4------------
1983-08-03 16.0 17.8 13.6 12.9 96.5- 8.0 5.3---- 18.5------------
1983-08-02 20.3 25.4 16.8 13.8 68.5- 5.3 1.7---- 12.0------------
1983-08-01 20.4 30.4 8.2 6.4 56.8- 2.3 3.0---- 0.0------------
1983-07-31 17.6 26.4 9.5 6.9 74.0- 4.7 1.7---- 0.0------------
1983-07-30 17.6 20.0 15.0 14.1 72.3- 6.3 3.7---- 0.0------------
1983-07-29 18.2 24.2 11.8 8.6 70.3- 5.3 2.7---- 0.0------------
1983-07-28 20.5 26.2 16.2 13.4 71.8- 5.3 3.7---- 0.0------------
1983-07-27 20.6 30.6 9.5 6.4 66.8- 4.3 0.7---- 0.0------------
1983-07-26 19.3 26.1 13.3 9.7 68.8- 0.0 2.3---- 0.0------------
1983-07-25 17.6 23.0 12.0 7.7 77.3- 2.0 3.3---- 0.0------------
1983-07-24 17.4 21.5 15.0 13.4 86.8- 5.3 2.3---- 0.0------------
1983-07-23 18.0 20.5 14.0 9.7 82.3- 7.3 3.0---- 0.4------------
1983-07-22 15.7 21.0 11.3 8.6 70.5- 6.7 2.3---- 0.0------------
1983-07-21 14.3 19.5 8.7 6.3 65.8- 4.0 3.0---- 0.0------------
1983-07-20 13.4 18.0 9.3 6.4 77.0- 5.3 2.7---- 0.1------------
1983-07-19 18.9 23.5 16.5 13.9 84.3- 6.0 3.0---- 0.3------------
1983-07-18 19.8 31.4 8.5 5.1 73.8- 4.3 2.3---- 23.6------------
1983-07-17 17.3 24.7 8.2 5.0 71.0- 0.7 1.7---- 0.0------------
1983-07-16 20.2 26.4 13.3 10.4 63.0- 3.0 2.7---- 0.0------------
1983-07-15 18.3 27.4 7.4 5.0 68.0- 1.3 1.7---- 0.0------------
1983-07-14 18.3 22.0 16.6 15.1 73.3- 2.7 3.7---- 0.0------------
1983-07-13 19.8 23.5 12.5 10.1 86.5- 5.3 2.0---- 0.2------------
1983-07-12 21.8 27.4 16.6 12.1 69.3- 4.0 2.7---- 0.0------------
1983-07-11 20.9 26.9 14.2 9.7 71.3- 6.0 3.7---- 0.0------------
1983-07-10 20.8 27.4 12.8 8.4 72.0- 1.3 2.3---- 0.0------------
1983-07-09 18.5 25.1 10.8 5.7 78.8- 3.0 2.0---- 0.0------------
1983-07-08 17.2 23.5 9.8 5.0 75.5- 1.7 2.7---- 0.0------------
1983-07-07 17.4 23.0 10.3 6.2 68.5- 0.0 2.7---- 0.0------------
1983-07-06 18.6 25.4 8.8 5.9 70.8- 0.0 1.3---- 0.0------------
1983-07-05 16.5 25.0 8.3 5.4 77.0- 0.7 2.0---- 0.0------------
1983-07-04 16.7 22.5 9.5 6.9 74.0- 5.7 1.0---- 0.0------------
1983-07-03 15.6 23.5 7.4 4.5 77.0- 3.7 2.3---- 0.0------------
1983-07-02 15.7 21.0 12.0 9.4 76.0- 2.3 1.7---- 0.0------------
1983-07-01 18.8 26.6 12.0 6.6 75.5- 3.7 2.0---- 1.4------------
1983-06-30 18.3 24.5 10.2 6.9 64.0- 5.3 2.0---- 0.0------------
1983-06-29 13.5 19.5 7.3 4.5 70.5- 7.0 2.0---- 0.0------------
1983-06-28 15.0 18.5 12.3 11.1 76.5- 6.7 2.0---- 0.0------------
1983-06-27 15.7 23.0 9.2 5.9 86.5- 7.3 2.0---- 4.8------------
1983-06-26 16.1 24.0 8.0 3.7 73.5- 0.7 2.0---- 0.0------------
1983-06-25 17.1 24.5 9.0 4.8 72.8- 5.3 1.0---- 0.0------------
1983-06-24 17.1 27.5 5.3 2.2 59.8- 0.0 1.3---- 0.0------------
1983-06-23 13.8 23.2 2.8 -1.8 63.5- 0.3 2.3---- 0.0------------
1983-06-22 12.2 17.2 4.2 -0.7 64.0- 0.0 2.0---- 0.0------------
1983-06-21 14.2 21.7 9.5 3.3 70.3- 2.3 4.7---- 0.0------------
1983-06-20 16.2 22.5 10.1 6.7 65.3- 1.7 2.7---- 0.0------------
1983-06-19 14.4 19.0 11.0 9.9 69.8- 1.0 4.0---- 0.0------------
1983-06-18 13.0 14.5 11.0 8.9 85.5- 8.0 3.3---- 0.0------------
1983-06-17 14.4 20.0 8.5 4.5 73.0- 5.7 2.7---- 0.0------------
1983-06-16 14.3 18.2 11.3 9.1 66.8- 6.7 3.3---- 0.0------------
303.5 ms

 

Źródłem pochodzenia danych jest Instytut Meteorologii i Gospodarki Wodnej – Państwowy Instytut Badawczy. Dane Instytutu Meteorologii i Gospodarki Wodnej – Państwowego Instytutu Badawczego zostały przetworzone.

Dane źródłowe można odnaleźć na stronie https://dane.imgw.pl